Time;durP1;ratioP1;P1;durP2;ratioP2;P2;SDS_P1;SDS_P2;PMS_P1;PMS_P2;Temp;Humidity;BMP_temperature;BMP_pressure;BME280_temperature;BME280_humidity;BME280_pressure;Samples;Min_cycle;Max_cycle;Signal;HPM_P1;HPM_P2
2022/01/30 00:00:32;;;;;;;;;20.20;18.60;;;;;4.20;45.03;99856.91;4859220;29;8870;-80
2022/01/30 00:03:05;;;;;;;;;21.80;17.20;;;;;4.37;44.61;99849.69;4873618;29;8899;-80
2022/01/30 00:05:34;;;;;;;;;19.25;19.25;;;;;4.40;44.39;99854.91;4885772;29;8925;-80
2022/01/30 00:08:04;;;;;;;;;20.00;18.25;;;;;4.44;44.57;99856.78;4857673;29;8931;-78
2022/01/30 00:10:38;;;;;;;;;15.25;14.25;;;;;4.30;44.46;99851.19;4868823;29;8871;-79
2022/01/30 00:13:10;;;;;;;;;21.20;18.60;;;;;4.34;44.25;99843.53;4891912;29;8866;-79
2022/01/30 00:15:42;;;;;;;;;18.40;15.00;;;;;4.26;44.15;99830.41;4901730;29;8987;-78
2022/01/30 00:18:33;;;;;;;;;18.75;18.75;;;;;4.13;44.18;99821.44;4876369;29;8997;-78
2022/01/30 00:21:09;;;;;;;;;15.60;13.60;;;;;4.07;43.36;99829.00;4876688;29;8868;-77
2022/01/30 00:23:44;;;;;;;;;16.40;14.80;;;;;4.13;43.18;99824.00;4897993;29;8997;-79
2022/01/30 00:26:17;;;;;;;;;15.00;15.00;;;;;4.19;43.16;99824.19;4958150;28;8991;-79
2022/01/30 00:28:46;;;;;;;;;18.20;15.00;;;;;4.13;43.32;99824.00;4974056;28;8899;-78
2022/01/30 00:31:17;;;;;;;;;13.40;11.60;;;;;4.20;43.71;99819.91;4952916;28;8865;-80
2022/01/30 00:33:47;;;;;;;;;16.00;14.60;;;;;4.34;42.80;99820.31;4968141;28;9124;-78
2022/01/30 00:36:16;;;;;;;;;16.75;12.50;;;;;4.27;43.09;99814.09;4986739;28;8898;-80
2022/01/30 00:38:45;;;;;;;;;14.40;14.40;;;;;4.19;42.31;99829.34;4977158;28;8860;-79
2022/01/30 00:41:16;;;;;;;;;17.75;16.75;;;;;4.17;42.49;99820.69;4990723;28;8883;-80
2022/01/30 00:43:45;;;;;;;;;18.00;16.75;;;;;4.25;42.22;99811.47;4990294;28;8965;-79
2022/01/30 00:46:13;;;;;;;;;12.00;11.80;;;;;4.34;41.73;99792.78;4990335;28;8937;-80
2022/01/30 00:48:43;;;;;;;;;14.20;11.60;;;;;4.27;41.76;99798.59;5007000;28;8858;-81
2022/01/30 00:51:11;;;;;;;;;11.60;11.60;;;;;4.10;41.08;99798.09;4990487;28;8985;-79
2022/01/30 00:53:42;;;;;;;;;15.60;13.20;;;;;4.22;40.82;99792.44;4974761;28;8888;-80
2022/01/30 00:56:11;;;;;;;;;11.00;11.00;;;;;4.11;40.34;99784.38;4990375;28;8866;-79
2022/01/30 00:58:41;;;;;;;;;14.00;13.40;;;;;3.90;40.18;99772.59;5005967;28;8844;-79
2022/01/30 01:01:10;;;;;;;;;11.00;10.00;;;;;3.97;39.98;99760.75;4990098;28;8848;-79
2022/01/30 01:03:39;;;;;;;;;11.40;10.80;;;;;3.90;39.08;99746.78;4974098;28;8883;-80
2022/01/30 01:06:08;;;;;;;;;10.40;8.80;;;;;3.71;39.18;99735.06;4961240;28;8884;-79
2022/01/30 01:08:49;;;;;;;;;7.40;7.40;;;;;3.70;38.79;99728.16;4989579;28;8888;-80
2022/01/30 01:11:51;;;;;;;;;9.00;7.00;;;;;3.62;38.57;99727.03;4990051;28;8871;-77
2022/01/30 01:25:22;;;;;;;;;8.60;8.00;;;;;4.16;36.88;99714.81;4970202;28;8896;-78
2022/01/30 01:27:51;;;;;;;;;8.40;7.40;;;;;4.08;37.04;99700.03;4954282;28;8866;-78
2022/01/30 01:30:21;;;;;;;;;8.00;7.00;;;;;4.06;37.12;99685.31;5000667;28;8869;-79
2022/01/30 01:32:50;;;;;;;;;6.60;6.60;;;;;4.12;37.15;99692.34;4935094;28;8950;-80
2022/01/30 01:35:20;;;;;;;;;9.00;7.80;;;;;4.32;36.90;99680.88;4966965;28;9650;-78
2022/01/30 01:37:53;;;;;;;;;9.60;8.80;;;;;4.48;36.49;99675.28;4951327;28;8876;-80
2022/01/30 01:40:24;;;;;;;;;11.60;10.80;;;;;4.56;36.44;99662.56;4982899;28;8987;-78
2022/01/30 01:42:54;;;;;;;;;8.40;7.80;;;;;4.54;36.17;99664.22;4950669;28;8971;-80
2022/01/30 01:45:26;;;;;;;;;6.80;6.80;;;;;4.61;37.14;99668.72;4934944;28;10119;-81
2022/01/30 01:47:55;;;;;;;;;8.40;7.20;;;;;4.69;36.29;99662.03;4928713;29;9629;-81
2022/01/30 01:50:38;;;;;;;;;5.40;5.40;;;;;4.62;36.63;99648.94;4912498;29;8877;-82
2022/01/30 01:53:12;;;;;;;;;7.80;5.00;;;;;4.69;36.12;99619.84;4944629;28;8937;-80
2022/01/30 01:55:43;;;;;;;;;6.00;6.00;;;;;4.70;35.96;99611.22;4947258;29;8846;-79
2022/01/30 01:58:25;;;;;;;;;11.20;8.00;;;;;4.70;35.60;99606.06;4947976;28;8844;-78
2022/01/30 02:01:23;;;;;;;;;6.20;6.20;;;;;4.71;35.45;99594.03;4946857;29;8973;-80
2022/01/30 02:03:54;;;;;;;;;5.20;5.20;;;;;4.78;35.42;99595.91;4914670;29;8907;-78
2022/01/30 02:06:24;;;;;;;;;4.60;4.00;;;;;4.85;35.07;99595.22;4947185;29;8882;-77
2022/01/30 02:08:59;;;;;;;;;3.60;3.60;;;;;4.73;35.13;99605.28;4947049;29;8862;-78
2022/01/30 02:11:35;;;;;;;;;5.00;4.00;;;;;4.99;35.88;99611.03;4947505;29;8866;-80
2022/01/30 02:14:35;;;;;;;;;5.40;5.20;;;;;5.03;35.57;99607.72;4931444;29;8874;-79
2022/01/30 02:25:42;;;;;;;;;6.60;5.00;;;;;5.22;35.39;99606.41;4869611;29;8879;-80
2022/01/30 02:28:14;;;;;;;;;7.00;6.60;;;;;4.95;35.69;99602.34;4907859;29;8910;-79
2022/01/30 02:30:50;;;;;;;;;3.60;3.60;;;;;5.02;36.10;99609.41;4862888;29;8880;-79
2022/01/30 02:33:22;;;;;;;;;4.00;3.60;;;;;5.08;36.15;99598.34;4894126;29;8853;-81
2022/01/30 02:35:51;;;;;;;;;5.80;5.00;;;;;5.05;35.66;99590.53;4876328;29;8899;-79
2022/01/30 02:38:22;;;;;;;;;7.20;6.20;;;;;5.12;36.08;99584.63;4898450;28;8989;-79
2022/01/30 02:40:56;;;;;;;;;11.20;8.60;;;;;5.01;36.16;99571.50;4948491;28;8942;-82
2022/01/30 02:43:29;;;;;;;;;8.00;7.20;;;;;4.93;36.46;99569.56;4933314;28;9002;-78
2022/01/30 02:46:06;;;;;;;;;9.80;9.20;;;;;5.01;36.72;99574.06;4932482;28;8897;-82
2022/01/30 02:48:47;;;;;;;;;5.60;5.60;;;;;5.02;36.33;99580.97;4933265;28;8876;-78
2022/01/30 02:51:18;;;;;;;;;4.60;4.60;;;;;5.17;36.15;99585.63;4933166;28;8926;-78
2022/01/30 02:54:02;;;;;;;;;4.60;4.60;;;;;5.33;36.39;99575.59;4960041;28;9762;-77
2022/01/30 02:56:36;;;;;;;;;8.60;8.60;;;;;5.18;35.79;99565.78;4967920;28;8953;-79
2022/01/30 02:59:05;;;;;;;;;7.60;5.60;;;;;5.30;36.35;99570.38;4942672;28;8849;-78
2022/01/30 03:01:34;;;;;;;;;8.20;7.60;;;;;5.26;35.91;99561.69;5007762;28;8866;-78
2022/01/30 03:04:03;;;;;;;;;11.40;9.80;;;;;5.35;36.17;99561.88;5028613;28;8999;-77
2022/01/30 03:06:32;;;;;;;;;10.60;10.60;;;;;5.32;35.94;99548.00;5013608;28;8833;-79
2022/01/30 03:09:05;;;;;;;;;8.60;7.60;;;;;5.28;35.95;99555.69;5028891;28;9587;-78
2022/01/30 03:11:34;;;;;;;;;9.20;8.20;;;;;5.02;36.50;99562.88;5013737;28;8845;-77
2022/01/30 03:14:05;;;;;;;;;10.40;8.40;;;;;5.09;36.17;99576.84;5018518;28;8863;-78
2022/01/30 03:16:34;;;;;;;;;9.00;8.60;;;;;5.19;36.16;99568.41;5020365;28;8869;-78
2022/01/30 03:19:03;;;;;;;;;7.80;7.00;;;;;5.18;36.51;99568.38;5016227;28;8876;-77
2022/01/30 03:21:32;;;;;;;;;9.00;7.80;;;;;5.04;36.71;99550.00;5030330;28;8856;-78
2022/01/30 03:24:01;;;;;;;;;7.20;5.80;;;;;5.07;36.65;99544.91;5010055;28;9611;-78
2022/01/30 03:26:37;;;;;;;;;10.60;8.00;;;;;5.07;36.82;99526.81;5016434;28;8952;-78
2022/01/30 03:29:13;;;;;;;;;8.80;8.80;;;;;5.21;36.60;99540.88;5029265;28;8877;-79
2022/01/30 03:31:45;;;;;;;;;8.00;7.20;;;;;5.31;36.47;99528.16;5011282;28;8908;-79
2022/01/30 03:34:15;;;;;;;;;8.60;5.80;;;;;5.28;35.79;99523.81;5041596;28;8885;-78
2022/01/30 03:36:49;;;;;;;;;5.20;5.00;;;;;5.11;36.32;99530.34;4985314;28;8956;-79
2022/01/30 03:39:20;;;;;;;;;4.80;4.80;;;;;5.19;36.26;99515.84;4970549;28;8905;-80
2022/01/30 03:41:51;;;;;;;;;6.40;5.60;;;;;5.23;36.51;99522.84;4970930;28;8976;-78
2022/01/30 03:44:21;;;;;;;;;8.40;7.20;;;;;5.33;36.38;99522.19;4954470;28;8871;-79
2022/01/30 03:46:50;;;;;;;;;7.00;7.00;;;;;5.44;36.34;99528.44;4986707;28;8904;-79
2022/01/30 03:49:25;;;;;;;;;4.00;4.00;;;;;5.57;35.83;99516.59;4971044;28;8955;-78
2022/01/30 03:51:54;;;;;;;;;6.00;6.00;;;;;5.58;35.22;99507.16;5009583;28;8872;-78
2022/01/30 03:54:25;;;;;;;;;6.60;6.60;;;;;5.66;35.06;99503.84;5009650;28;8885;-77
2022/01/30 03:56:56;;;;;;;;;6.60;6.60;;;;;5.63;35.46;99485.72;4993102;28;8826;-79
2022/01/30 03:59:28;;;;;;;;;7.00;5.60;;;;;5.68;35.01;99482.31;4993389;28;8877;-77
2022/01/30 04:01:57;;;;;;;;;8.40;6.60;;;;;5.59;34.95;99446.81;5009090;28;8958;-78
2022/01/30 04:04:28;;;;;;;;;5.60;5.60;;;;;5.58;34.76;99440.75;5007529;28;9994;-79
2022/01/30 04:06:58;;;;;;;;;6.00;5.20;;;;;5.63;35.27;99439.13;5008983;28;8908;-80
2022/01/30 04:09:46;;;;;;;;;5.80;4.80;;;;;5.65;34.56;99431.38;5011056;28;8877;-79
2022/01/30 04:12:40;;;;;;;;;5.80;5.40;;;;;5.56;33.51;99437.28;4987957;28;8957;-80
2022/01/30 04:15:36;;;;;;;;;4.40;4.40;;;;;5.59;34.00;99423.53;4913930;29;8954;-79
2022/01/30 04:18:21;;;;;;;;;4.00;4.00;;;;;5.56;33.62;99421.75;4895471;29;8866;-79
2022/01/30 04:21:09;;;;;;;;;5.60;5.00;;;;;5.47;34.11;99419.88;4911031;29;8866;-78
2022/01/30 04:23:49;;;;;;;;;6.60;5.00;;;;;5.60;34.25;99412.34;4880376;29;8882;-79
2022/01/30 04:26:38;;;;;;;;;8.60;8.60;;;;;5.63;34.49;99405.50;4891556;29;8883;-77
2022/01/30 04:29:19;;;;;;;;;8.80;5.20;;;;;5.73;34.18;99395.28;4846613;29;8899;-78
2022/01/30 04:32:17;;;;;;;;;6.00;6.00;;;;;5.51;33.63;99407.00;4856149;29;8895;-81
2022/01/30 04:35:10;;;;;;;;;8.20;6.00;;;;;5.64;33.72;99404.66;4910600;29;8968;-80
2022/01/30 04:38:06;;;;;;;;;9.00;8.80;;;;;5.68;34.09;99386.59;4910600;29;9706;-78
2022/01/30 04:53:09;;;;;;;;;6.20;6.20;;;;;5.68;34.57;99386.59;4928839;28;8911;-78
2022/01/30 04:56:35;;;;;;;;;5.60;5.60;;;;;5.65;35.26;99382.22;4966346;28;8869;-79
2022/01/30 04:59:40;;;;;;;;;6.00;4.60;;;;;5.69;34.82;99397.00;4963372;28;8878;-81
2022/01/30 05:02:50;;;;;;;;;8.20;7.60;;;;;5.74;35.22;99407.41;4952741;28;8974;-81
2022/01/30 05:05:47;;;;;;;;;5.00;5.00;;;;;5.71;35.00;99410.81;4951531;28;8991;-77
2022/01/30 05:08:23;;;;;;;;;6.00;6.00;;;;;5.75;34.85;99407.44;4966527;28;9559;-81
2022/01/30 05:11:11;;;;;;;;;6.80;6.00;;;;;5.80;35.22;99395.44;4937937;28;8865;-79
2022/01/30 05:14:15;;;;;;;;;6.20;5.60;;;;;5.73;35.43;99398.78;4946675;28;8879;-80
2022/01/30 05:17:06;;;;;;;;;11.80;9.80;;;;;5.90;35.49;99400.75;4965403;28;8998;-80
2022/01/30 05:19:58;;;;;;;;;7.20;6.00;;;;;5.94;35.01;99385.31;4926634;28;9610;-79
2022/01/30 05:22:30;;;;;;;;;4.80;4.80;;;;;5.93;35.62;99380.97;5001883;28;9000;-78
2022/01/30 05:25:23;;;;;;;;;5.40;5.40;;;;;5.90;35.70;99387.81;4984565;28;8848;-78
2022/01/30 05:28:02;;;;;;;;;10.00;8.60;;;;;5.91;35.91;99379.22;4984949;28;8857;-79
2022/01/30 05:30:42;;;;;;;;;8.00;8.00;;;;;5.85;35.71;99391.19;4923469;28;9406;-77
2022/01/30 05:33:20;;;;;;;;;9.00;8.40;;;;;5.95;35.84;99381.88;4966802;28;8863;-77
2022/01/30 05:36:02;;;;;;;;;9.20;6.40;;;;;5.95;35.96;99379.28;4984229;28;9062;-78
2022/01/30 05:38:50;;;;;;;;;6.40;6.40;;;;;5.97;36.27;99379.31;4984608;28;8865;-77
2022/01/30 05:41:56;;;;;;;;;8.40;8.00;;;;;5.97;36.16;99371.56;4929805;28;9582;-79
2022/01/30 05:44:48;;;;;;;;;8.60;7.20;;;;;5.92;36.39;99362.84;4945475;28;8898;-76
2022/01/30 05:47:43;;;;;;;;;8.20;7.20;;;;;5.91;36.82;99350.75;4921690;29;9673;-78
2022/01/30 05:50:38;;;;;;;;;5.60;5.00;;;;;5.91;36.92;99364.53;4892374;29;9100;-78
2022/01/30 05:53:13;;;;;;;;;9.60;8.00;;;;;5.98;36.85;99352.59;4898020;29;9085;-77
2022/01/30 05:56:03;;;;;;;;;8.00;6.00;;;;;6.11;36.73;99351.94;4882735;29;8948;-79
2022/01/30 05:58:32;;;;;;;;;5.80;5.80;;;;;6.07;37.02;99339.81;4867147;29;8959;-77
2022/01/30 06:01:16;;;;;;;;;12.00;9.40;;;;;6.11;36.88;99353.66;4897921;29;8891;-79
2022/01/30 06:03:45;;;;;;;;;13.00;11.60;;;;;6.21;36.99;99363.28;4880677;29;8994;-80
2022/01/30 06:06:14;;;;;;;;;9.60;7.60;;;;;6.31;36.78;99365.13;4916604;29;8875;-79
2022/01/30 06:08:46;;;;;;;;;9.80;8.40;;;;;6.37;36.67;99362.66;4917101;29;9010;-79
2022/01/30 06:11:16;;;;;;;;;12.20;10.80;;;;;6.40;36.94;99361.81;4899240;29;9689;-78
2022/01/30 06:13:45;;;;;;;;;9.80;9.00;;;;;6.36;36.91;99365.22;4914008;29;8891;-78
2022/01/30 06:16:13;;;;;;;;;5.00;3.60;;;;;6.34;36.97;99356.56;4940176;28;8873;-78
2022/01/30 06:18:43;;;;;;;;;11.40;11.00;;;;;6.38;37.19;99358.34;4971098;28;8950;-81
2022/01/30 06:21:34;;;;;;;;;14.20;13.80;;;;;6.36;37.13;99352.28;4974309;28;8882;-77
2022/01/30 06:24:23;;;;;;;;;24.00;20.60;;;;;6.32;37.54;99353.94;4953296;28;8822;-79
2022/01/30 06:27:07;;;;;;;;;13.60;12.00;;;;;6.24;37.37;99356.44;5030421;28;8900;-78
2022/01/30 06:29:54;;;;;;;;;16.80;14.20;;;;;6.28;37.57;99351.31;5011443;28;9000;-81
2022/01/30 06:32:42;;;;;;;;;12.60;11.20;;;;;6.28;37.51;99357.34;5026321;28;8882;-81
2022/01/30 06:35:49;;;;;;;;;12.00;10.40;;;;;6.37;37.42;99351.41;4939464;28;8867;-80
2022/01/30 06:38:29;;;;;;;;;13.00;12.00;;;;;6.35;37.44;99341.06;4929239;29;8872;-78
2022/01/30 06:41:09;;;;;;;;;13.00;11.20;;;;;6.37;37.70;99351.41;4878941;29;8861;-80
2022/01/30 06:43:58;;;;;;;;;12.00;10.40;;;;;6.28;37.67;99336.63;4870915;29;8907;-80
2022/01/30 06:46:45;;;;;;;;;12.00;10.80;;;;;6.25;37.87;99313.28;4857587;29;8855;-79
2022/01/30 06:49:33;;;;;;;;;11.40;8.80;;;;;6.24;38.52;99342.63;4857780;29;8904;-79
2022/01/30 06:52:17;;;;;;;;;13.60;12.40;;;;;6.41;38.07;99348.03;4871025;29;8881;-79
2022/01/30 06:58:35;;;;;;;;;18.40;14.80;;;;;6.36;37.92;99335.00;4823127;29;8882;-78
2022/01/30 07:01:25;;;;;;;;;17.00;15.20;;;;;6.51;38.12;99330.88;4838174;29;8948;-80
2022/01/30 07:04:13;;;;;;;;;13.80;12.60;;;;;6.56;37.97;99332.69;4850496;29;8877;-80
2022/01/30 07:07:03;;;;;;;;;22.20;20.60;;;;;6.73;37.84;99327.69;4830054;29;8903;-79
2022/01/30 07:09:33;;;;;;;;;17.60;16.60;;;;;6.66;38.06;99315.50;4868694;29;8887;-78
2022/01/30 07:12:01;;;;;;;;;16.40;11.80;;;;;6.82;37.89;99319.13;4853007;29;8921;-76
2022/01/30 07:14:32;;;;;;;;;13.80;13.40;;;;;6.86;37.80;99313.13;4853466;29;8919;-75
2022/01/30 07:17:01;;;;;;;;;16.20;14.40;;;;;6.84;37.57;99317.44;4851728;29;8848;-75
2022/01/30 07:19:29;;;;;;;;;17.80;14.60;;;;;6.90;37.77;99312.34;4869762;29;9057;-77
2022/01/30 07:21:58;;;;;;;;;13.40;13.40;;;;;7.06;37.60;99299.53;4890704;29;8910;-77
2022/01/30 07:24:27;;;;;;;;;13.40;11.20;;;;;7.11;37.20;99311.69;4895765;29;8971;-80
2022/01/30 07:26:56;;;;;;;;;13.60;13.00;;;;;7.22;37.12;99320.41;4897175;29;8977;-77
2022/01/30 07:29:24;;;;;;;;;22.40;15.80;;;;;7.27;36.72;99330.81;4896000;29;8894;-80
2022/01/30 07:31:55;;;;;;;;;21.40;20.60;;;;;7.35;37.09;99324.00;4978606;28;8900;-80
2022/01/30 07:34:23;;;;;;;;;18.20;16.00;;;;;7.39;36.91;99323.16;5008470;28;8888;-76
2022/01/30 07:36:56;;;;;;;;;18.20;17.00;;;;;7.32;37.07;99328.28;4968718;28;8855;-78
2022/01/30 07:39:28;;;;;;;;;16.20;15.80;;;;;7.56;36.69;99317.22;4962791;28;8868;-76
2022/01/30 07:41:57;;;;;;;;;27.60;20.60;;;;;7.54;36.81;99309.47;4930258;29;8874;-80
2022/01/30 07:44:31;;;;;;;;;14.60;14.60;;;;;7.62;36.79;99317.31;4938171;28;8871;-79
2022/01/30 07:47:01;;;;;;;;;13.00;12.60;;;;;7.67;36.96;99332.91;4937677;28;8909;-78
2022/01/30 07:49:30;;;;;;;;;16.40;13.40;;;;;7.78;36.46;99321.72;4906933;28;9006;-77
2022/01/30 07:51:59;;;;;;;;;16.40;14.60;;;;;7.90;36.63;99309.69;4948560;28;8906;-78
2022/01/30 07:54:28;;;;;;;;;20.20;16.20;;;;;7.91;35.91;99312.28;4912586;29;8878;-77
2022/01/30 07:56:57;;;;;;;;;22.20;20.60;;;;;8.04;35.89;99307.19;4913460;29;8858;-77
2022/01/30 07:59:26;;;;;;;;;22.20;20.40;;;;;7.96;36.32;99297.63;4943192;29;8859;-78
2022/01/30 08:01:56;;;;;;;;;17.40;14.60;;;;;7.96;35.34;99297.63;4929208;28;8874;-77
2022/01/30 08:04:28;;;;;;;;;14.40;14.20;;;;;8.00;35.91;99295.91;4914772;28;8878;-79
2022/01/30 08:06:57;;;;;;;;;14.00;13.50;;;;;7.96;36.27;99297.63;4948077;28;9770;-78
2022/01/30 08:09:27;;;;;;;;;18.00;15.80;;;;;8.04;36.00;99307.19;4971572;28;9074;-79
2022/01/30 08:11:55;;;;;;;;;15.20;15.20;;;;;8.21;36.39;99308.16;4987722;28;8872;-78
2022/01/30 08:14:24;;;;;;;;;22.25;21.75;;;;;8.45;35.48;99311.75;4967414;28;9645;-76
2022/01/30 08:16:53;;;;;;;;;40.75;36.50;;;;;8.53;35.47;99323.91;4951739;28;8879;-75
2022/01/30 08:19:24;;;;;;;;;24.25;21.25;;;;;8.62;35.67;99330.00;4981139;28;10334;-77
2022/01/30 08:21:57;;;;;;;;;27.00;21.75;;;;;8.83;35.11;99324.00;5022554;28;9603;-80
2022/01/30 08:24:25;;;;;;;;;21.20;20.20;;;;;8.96;35.46;99320.59;4990281;28;8862;-77
2022/01/30 08:26:54;;;;;;;;;15.40;13.60;;;;;9.11;35.28;99306.72;4988242;28;8936;-76
2022/01/30 08:29:23;;;;;;;;;16.00;15.00;;;;;9.16;35.02;99308.47;5023124;28;8862;-82
2022/01/30 08:31:52;;;;;;;;;20.00;19.60;;;;;9.16;34.70;99315.41;4987076;28;8870;-76
2022/01/30 08:34:20;;;;;;;;;21.40;19.80;;;;;9.28;34.03;99319.75;5002091;28;9649;-77
2022/01/30 08:36:49;;;;;;;;;4.60;3.00;;;;;9.29;34.39;99324.09;4941517;28;8874;-78
2022/01/30 08:39:20;;;;;;;;;24.40;19.60;;;;;9.27;33.92;99318.91;4986436;28;8938;-78
2022/01/30 08:41:48;;;;;;;;;19.60;14.80;;;;;9.43;34.38;99309.34;4954929;28;12313;-80
2022/01/30 08:44:17;;;;;;;;;17.00;16.60;;;;;9.59;33.54;99307.63;5008980;28;8866;-77
2022/01/30 08:46:46;;;;;;;;;15.60;12.40;;;;;9.54;32.87;99309.38;5001463;28;9910;-81
2022/01/30 08:49:15;;;;;;;;;12.40;12.20;;;;;9.67;32.82;99303.28;5000005;28;8838;-77
2022/01/30 08:51:44;;;;;;;;;15.40;12.40;;;;;9.94;33.49;99298.91;5038451;28;12645;-79
2022/01/30 08:54:12;;;;;;;;;10.00;7.80;;;;;10.09;32.90;99285.88;5003218;28;11983;-77
2022/01/30 08:56:43;;;;;;;;;19.00;14.00;;;;;10.02;32.29;99297.16;5031010;28;9617;-79
2022/01/30 08:59:12;;;;;;;;;14.00;12.40;;;;;10.07;32.22;99295.38;5011030;28;8943;-79
2022/01/30 09:01:41;;;;;;;;;11.40;11.20;;;;;10.32;32.00;99292.75;4995347;28;8852;-76
2022/01/30 09:04:11;;;;;;;;;16.60;12.20;;;;;10.51;31.93;99293.56;4976602;28;8852;-76
2022/01/30 09:06:40;;;;;;;;;15.80;12.40;;;;;10.53;31.17;99300.50;4992817;28;8867;-78
2022/01/30 09:09:08;;;;;;;;;13.20;12.80;;;;;10.52;30.47;99308.31;5025327;28;8864;-76
2022/01/30 09:11:37;;;;;;;;;18.20;16.20;;;;;10.70;31.42;99296.94;5024506;28;8856;-79
2022/01/30 09:14:08;;;;;;;;;16.00;13.40;;;;;10.86;31.20;99295.13;5009692;28;8972;-81
2022/01/30 09:16:37;;;;;;;;;14.00;12.40;;;;;10.95;30.29;99289.84;5025529;28;8868;-80
2022/01/30 09:19:26;;;;;;;;;18.40;14.00;;;;;10.90;30.09;99295.06;5009428;28;9702;-78
2022/01/30 09:21:54;;;;;;;;;18.40;13.20;;;;;10.97;30.49;99287.22;4985633;28;8850;-77
2022/01/30 09:24:23;;;;;;;;;19.20;16.60;;;;;11.05;30.52;99269.78;4969731;28;9623;-78
2022/01/30 09:26:52;;;;;;;;;16.80;14.20;;;;;11.07;31.02;99262.78;4985039;28;8890;-77
2022/01/30 09:29:22;;;;;;;;;32.50;28.50;;;;;11.18;30.21;99294.03;4986324;28;8944;-80
2022/01/30 09:32:01;;;;;;;;;24.20;22.00;;;;;10.74;30.38;99301.28;4986149;28;9644;-79
2022/01/30 09:34:30;;;;;;;;;23.60;18.80;;;;;11.03;30.19;99292.41;4985806;28;8886;-78
2022/01/30 09:36:59;;;;;;;;;15.60;14.40;;;;;10.56;29.92;99288.31;4996872;28;8860;-79
2022/01/30 09:39:29;;;;;;;;;17.80;15.40;;;;;10.64;29.19;99268.28;4972804;28;8898;-79
2022/01/30 09:41:58;;;;;;;;;12.60;10.40;;;;;10.69;30.37;99269.13;5004659;28;8856;-78
2022/01/30 09:44:29;;;;;;;;;6.60;5.60;;;;;10.80;30.64;99269.06;4989297;28;8883;-79
2022/01/30 09:46:58;;;;;;;;;20.40;18.60;;;;;10.95;30.70;99244.63;4989561;28;8879;-77
2022/01/30 09:49:30;;;;;;;;;13.00;10.80;;;;;11.07;30.29;99253.22;4989281;28;8899;-78
2022/01/30 09:51:59;;;;;;;;;17.20;15.00;;;;;10.88;29.97;99252.47;4973416;28;8860;-79
2022/01/30 09:54:27;;;;;;;;;15.20;12.00;;;;;10.77;29.76;99222.13;5011939;28;8850;-80
2022/01/30 09:56:57;;;;;;;;;9.40;8.80;;;;;10.69;29.68;99217.81;5012075;28;8980;-79
2022/01/30 09:59:26;;;;;;;;;12.40;9.00;;;;;10.73;29.53;99224.75;5024350;28;8856;-79
2022/01/30 10:01:56;;;;;;;;;13.60;13.60;;;;;10.82;30.15;99218.63;5007653;28;9606;-78
2022/01/30 10:04:25;;;;;;;;;17.20;14.40;;;;;10.44;30.67;99243.19;4985573;28;8887;-78
2022/01/30 10:07:00;;;;;;;;;13.60;12.60;;;;;10.77;30.72;99216.91;4902979;28;8875;-83
2022/01/30 10:09:33;;;;;;;;;15.20;14.60;;;;;9.87;31.07;99265.94;4966223;28;8883;-77
2022/01/30 10:14:51;;;;;;;;;16.80;12.00;;;;;9.90;30.96;99252.91;4945263;28;8865;-73
2022/01/30 10:17:32;;;;;;;;;14.60;11.80;;;;;10.02;31.23;99242.47;4962877;28;9648;-74
2022/01/30 10:20:22;;;;;;;;;12.40;12.40;;;;;10.17;31.20;99251.06;4953552;28;8947;-72
2022/01/30 10:22:52;;;;;;;;;14.80;14.80;;;;;10.11;30.93;99263.28;4949510;28;8875;-76
2022/01/30 10:25:24;;;;;;;;;19.20;17.00;;;;;9.94;32.45;99263.31;4921253;28;9052;-73
2022/01/30 10:28:07;;;;;;;;;17.60;16.60;;;;;8.86;33.77;99295.41;4965524;28;8872;-75
2022/01/30 10:30:41;;;;;;;;;21.20;19.40;;;;;8.28;35.79;99312.53;4948875;28;8876;-77
2022/01/30 10:33:13;;;;;;;;;18.00;14.60;;;;;8.19;35.82;99320.25;4965142;28;8846;-79
2022/01/30 10:35:51;;;;;;;;;7.40;6.40;;;;;8.37;35.33;99340.25;4981334;28;8875;-75
2022/01/30 10:38:23;;;;;;;;;21.20;18.60;;;;;8.70;36.70;99351.72;5021530;28;8867;-75
2022/01/30 10:40:58;;;;;;;;;35.25;29.25;;;;;8.45;37.55;99342.91;5010768;28;8865;-77
2022/01/30 10:43:54;;;;;;;;;37.00;33.50;;;;;7.45;41.24;99345.69;5013893;28;8897;-76
2022/01/30 10:46:25;;;;;;;;;38.50;33.50;;;;;7.39;41.85;99363.78;4968612;28;8863;-77
2022/01/30 10:48:58;;;;;;;;;34.00;30.75;;;;;7.12;41.79;99367.84;4936955;28;8856;-76
2022/01/30 10:51:28;;;;;;;;;34.75;33.00;;;;;6.92;41.40;99341.72;4968901;28;9081;-77
2022/01/30 10:53:58;;;;;;;;;31.75;28.50;;;;;7.30;41.52;99324.81;4952965;28;8871;-78
2022/01/30 10:56:30;;;;;;;;;27.25;27.00;;;;;7.12;41.58;99339.31;4960800;28;9014;-81
2022/01/30 10:59:10;;;;;;;;;35.25;32.50;;;;;6.98;41.46;99343.50;4953143;28;8886;-82
2022/01/30 11:01:40;;;;;;;;;15.50;15.00;;;;;7.12;40.88;99338.47;4952076;28;8891;-82
2022/01/30 11:04:23;;;;;;;;;29.50;26.00;;;;;6.92;41.33;99320.09;4945636;29;8983;-80
2022/01/30 11:06:52;;;;;;;;;30.25;24.75;;;;;6.79;40.97;99308.75;4916754;28;8931;-80
2022/01/30 11:09:39;;;;;;;;;32.25;23.00;;;;;6.79;41.63;99306.16;4911925;29;9036;-81
2022/01/30 11:12:13;;;;;;;;;28.75;26.75;;;;;6.52;41.91;99322.25;4931348;29;9653;-81
2022/01/30 11:14:54;;;;;;;;;29.25;24.75;;;;;6.57;42.28;99330.94;4935063;28;8885;-80
2022/01/30 11:17:26;;;;;;;;;24.50;24.50;;;;;6.83;42.13;99313.13;4921596;29;8893;-79
2022/01/30 11:19:58;;;;;;;;;28.75;26.00;;;;;6.92;41.20;99307.13;4909045;29;8969;-79
2022/01/30 11:22:32;;;;;;;;;31.00;25.50;;;;;7.13;41.01;99306.50;4948684;28;8865;-80
2022/01/30 11:25:03;;;;;;;;;27.25;26.00;;;;;7.32;41.40;99305.81;4991827;28;8865;-80
2022/01/30 11:27:32;;;;;;;;;30.75;22.50;;;;;7.78;40.65;99303.56;5021450;28;8860;-80
2022/01/30 11:30:02;;;;;;;;;19.50;19.50;;;;;7.83;40.25;99300.16;5022487;28;8853;-80
2022/01/30 11:32:31;;;;;;;;;25.50;23.50;;;;;7.87;39.76;99274.19;5026340;28;9081;-82
2022/01/30 11:35:04;;;;;;;;;25.50;21.75;;;;;8.24;40.11;99255.34;5010609;28;8865;-81
2022/01/30 11:37:36;;;;;;;;;28.50;27.00;;;;;8.65;38.93;99241.66;5009040;28;8853;-81
2022/01/30 11:40:13;;;;;;;;;38.25;32.75;;;;;8.78;38.01;99241.66;4990948;28;8939;-81
2022/01/30 11:42:47;;;;;;;;;28.25;24.75;;;;;9.09;37.90;99235.63;4971042;28;8855;-80
2022/01/30 11:45:24;;;;;;;;;28.75;26.75;;;;;9.10;37.16;99246.03;5007386;28;8821;-81
2022/01/30 11:48:12;;;;;;;;;36.75;31.25;;;;;8.98;38.11;99252.09;4982098;28;8876;-81
2022/01/30 11:50:43;;;;;;;;;33.50;30.50;;;;;9.13;37.13;99243.44;5029743;28;8865;-83
2022/01/30 11:53:21;;;;;;;;;34.50;32.50;;;;;9.42;37.83;99234.75;5020891;28;8881;-80
2022/01/30 11:55:56;;;;;;;;;33.00;28.75;;;;;9.65;36.80;99215.63;5029319;28;8876;-82
2022/01/30 11:58:45;;;;;;;;;31.75;26.75;;;;;9.94;36.78;99197.31;5019934;28;8844;-80
2022/01/30 12:01:35;;;;;;;;;28.00;26.25;;;;;10.00;36.93;99193.81;5028969;28;8887;-83
2022/01/30 12:04:10;;;;;;;;;30.50;28.25;;;;;9.91;36.84;99189.53;5045099;28;8867;-81
2022/01/30 12:06:43;;;;;;;;;34.50;31.50;;;;;10.06;36.87;99186.88;5010577;28;8890;-79
2022/01/30 12:09:29;;;;;;;;;41.75;37.75;;;;;10.23;37.09;99193.75;4977836;28;8852;-80
2022/01/30 12:12:08;;;;;;;;;37.25;36.75;;;;;10.34;37.12;99181.56;5009823;28;8847;-80
2022/01/30 12:14:58;;;;;;;;;34.00;26.50;;;;;10.39;36.82;99165.88;4994693;28;8855;-82
2022/01/30 12:17:50;;;;;;;;;36.75;31.50;;;;;10.17;37.10;99159.88;4991510;28;9034;-83
2022/01/30 12:20:20;;;;;;;;;36.75;35.50;;;;;10.24;37.51;99153.78;5006015;28;8846;-80
2022/01/30 12:22:53;;;;;;;;;37.50;31.00;;;;;10.06;37.43;99172.97;5007463;28;8886;-81
2022/01/30 12:25:39;;;;;;;;;39.75;35.50;;;;;10.27;37.42;99151.16;4974056;28;8882;-78
2022/01/30 12:28:13;;;;;;;;;38.00;32.50;;;;;10.01;38.31;99169.53;4990034;28;8846;-78
2022/01/30 12:30:49;;;;;;;;;30.50;29.50;;;;;9.62;39.76;99160.97;4993534;28;8873;-80
2022/01/30 12:33:38;;;;;;;;;32.50;29.25;;;;;9.04;41.67;99172.38;5007059;28;8858;-78
2022/01/30 12:36:15;;;;;;;;;34.50;31.75;;;;;8.98;42.39;99170.63;4970871;28;14322;-75
2022/01/30 12:38:46;;;;;;;;;40.00;33.50;;;;;9.11;42.52;99174.06;4906094;28;14409;-75
2022/01/30 12:41:17;;;;;;;;;35.00;30.50;;;;;9.50;41.96;99162.72;5025613;28;8889;-74
2022/01/30 12:43:46;;;;;;;;;23.00;20.50;;;;;9.39;42.76;99164.50;5021363;28;9005;-78
2022/01/30 12:46:15;;;;;;;;;27.75;27.25;;;;;9.39;43.45;99159.28;4979651;28;8901;-78
2022/01/30 12:48:59;;;;;;;;;22.00;20.75;;;;;9.75;42.78;99157.44;5010219;28;8864;-78
2022/01/30 12:51:29;;;;;;;;;28.50;27.00;;;;;10.01;42.08;99151.28;4991248;28;8873;-78
2022/01/30 12:53:59;;;;;;;;;23.50;18.50;;;;;9.83;42.53;99173.94;4991526;28;8858;-78
2022/01/30 12:56:28;;;;;;;;;31.25;27.00;;;;;9.58;43.72;99175.72;4993534;28;8850;-78